createdAt,value
2023-02-12T00:02:02.641Z,79.93
2023-02-12T00:04:29.088Z,80.80
2023-02-12T00:06:55.539Z,81.12
2023-02-12T00:09:22.073Z,80.93
2023-02-12T00:11:48.557Z,80.22
2023-02-12T00:14:15.022Z,80.73
2023-02-12T00:16:41.417Z,80.77
2023-02-12T00:19:07.851Z,80.25
2023-02-12T00:21:36.044Z,80.14
2023-02-12T00:24:02.716Z,80.22
2023-02-12T00:26:29.458Z,80.05
2023-02-12T00:28:56.255Z,80.21
2023-02-12T00:31:29.237Z,80.37
2023-02-12T00:33:59.551Z,80.23
2023-02-12T00:36:28.805Z,79.94
2023-02-12T00:38:56.297Z,79.81
2023-02-12T00:41:24.882Z,79.69
2023-02-12T00:43:52.409Z,79.22
2023-02-12T00:46:19.584Z,79.55
2023-02-12T00:48:46.082Z,79.65
2023-02-12T00:51:12.914Z,79.67
2023-02-12T00:53:39.621Z,79.25
2023-02-12T00:56:07.335Z,79.26
2023-02-12T00:58:33.782Z,79.60
2023-02-12T01:01:00.326Z,79.75
2023-02-12T01:03:26.759Z,79.88
2023-02-12T01:05:54.138Z,79.44
2023-02-12T01:08:21.399Z,79.44
2023-02-12T01:10:55.017Z,79.43
2023-02-12T01:13:21.648Z,79.34
2023-02-12T01:15:48.188Z,79.73
2023-02-12T01:18:16.217Z,80.21
2023-02-12T01:20:43.382Z,80.17
2023-02-12T01:23:09.854Z,80.11
2023-02-12T01:25:38.702Z,79.62
2023-02-12T01:28:05.229Z,79.47
2023-02-12T01:30:31.668Z,79.52
2023-02-12T01:32:58.244Z,79.54
2023-02-12T01:35:24.735Z,79.74
2023-02-12T01:37:51.117Z,79.64
2023-02-12T01:40:18.228Z,80.08
2023-02-12T01:42:45.936Z,80.34
2023-02-12T01:45:12.356Z,79.82
2023-02-12T01:47:44.295Z,79.61
2023-02-12T01:50:15.319Z,79.85
2023-02-12T01:52:48.248Z,79.61
2023-02-12T01:55:15.725Z,79.81
2023-02-12T01:57:45.682Z,80.11
2023-02-12T02:00:16.170Z,79.82
2023-02-12T02:02:51.314Z,80.36
2023-02-12T02:05:27.005Z,80.56
2023-02-12T02:07:54.086Z,80.99
2023-02-12T02:10:20.556Z,80.74
2023-02-12T02:13:05.856Z,80.86
2023-02-12T02:15:33.136Z,80.14
2023-02-12T02:18:30.085Z,81.05
2023-02-12T02:21:11.712Z,80.78
2023-02-12T02:23:55.556Z,80.99
2023-02-12T02:26:54.809Z,80.88
2023-02-12T02:29:56.987Z,80.59
2023-02-12T02:32:27.019Z,80.38
2023-02-12T02:35:01.131Z,80.37
2023-02-12T02:37:36.037Z,80.48
2023-02-12T02:40:19.392Z,81.04
2023-02-12T02:43:00.489Z,81.21
2023-02-12T02:45:52.384Z,81.21
2023-02-12T02:48:25.019Z,80.88
2023-02-12T02:51:04.606Z,80.91
2023-02-12T02:53:39.701Z,81.27
2023-02-12T02:56:11.588Z,80.79
2023-02-12T02:59:10.810Z,80.52
2023-02-12T03:01:45.023Z,80.98
2023-02-12T03:04:42.435Z,81.34
2023-02-12T03:07:13.616Z,81.39
2023-02-12T03:09:44.861Z,81.26
2023-02-12T03:12:24.427Z,80.73
2023-02-12T03:14:58.444Z,80.63
2023-02-12T03:17:30.392Z,80.69
2023-02-12T03:20:14.241Z,80.29
2023-02-12T03:22:48.125Z,80.29
2023-02-12T03:25:18.018Z,80.53
2023-02-12T03:27:51.673Z,81.18
2023-02-12T03:30:18.575Z,80.99
2023-02-12T03:33:13.604Z,80.90
2023-02-12T03:36:03.356Z,80.43
2023-02-12T03:38:36.846Z,80.43
2023-02-12T03:41:11.393Z,80.40
2023-02-12T03:43:41.170Z,80.64
2023-02-12T03:46:20.692Z,80.47
2023-02-12T03:48:59.560Z,80.33
2023-02-12T03:51:25.936Z,80.78
2023-02-12T03:53:52.741Z,80.96
2023-02-12T03:56:25.383Z,80.40
2023-02-12T03:58:52.691Z,80.33
2023-02-12T04:01:19.298Z,80.89
2023-02-12T04:03:46.681Z,80.64
2023-02-12T04:06:26.093Z,80.95
2023-02-12T04:08:55.106Z,80.36
2023-02-12T04:11:40.689Z,80.01
2023-02-12T04:14:15.167Z,80.04
2023-02-12T04:16:51.016Z,80.26
2023-02-12T04:19:44.642Z,80.14
2023-02-12T04:22:26.797Z,80.32
2023-02-12T04:25:10.600Z,79.90
2023-02-12T04:27:49.236Z,79.91
2023-02-12T04:30:42.939Z,80.14
2023-02-12T04:33:13.073Z,80.81
2023-02-12T04:35:54.747Z,80.95
2023-02-12T04:38:26.714Z,81.13
2023-02-12T04:40:53.539Z,81.38
2023-02-12T04:43:46.189Z,80.79
2023-02-12T04:46:12.677Z,81.54
2023-02-12T04:48:51.691Z,82.01
2023-02-12T04:51:18.221Z,82.21
2023-02-12T04:53:44.635Z,81.90
2023-02-12T04:56:13.665Z,81.78
2023-02-12T04:58:41.110Z,81.37
2023-02-12T05:01:09.259Z,81.50
2023-02-12T05:03:36.701Z,81.27
2023-02-12T05:06:05.506Z,81.38
2023-02-12T05:08:32.299Z,81.26
2023-02-12T05:11:05.003Z,80.70
2023-02-12T05:13:31.776Z,81.46
2023-02-12T05:15:58.489Z,82.17
2023-02-12T05:18:25.591Z,81.85
2023-02-12T05:20:59.988Z,81.91
2023-02-12T05:23:28.209Z,81.72
2023-02-12T05:25:55.187Z,81.80
2023-02-12T05:28:21.812Z,81.88
2023-02-12T05:30:48.498Z,81.19
2023-02-12T05:33:15.069Z,81.31
2023-02-12T05:35:41.819Z,80.63
2023-02-12T05:38:08.209Z,80.24
2023-02-12T05:40:35.589Z,81.39
2023-02-12T05:43:02.394Z,81.87
2023-02-12T05:45:29.299Z,81.94
2023-02-12T05:47:56.926Z,81.88
2023-02-12T05:50:23.502Z,82.08
2023-02-12T05:53:02.695Z,82.61
2023-02-12T05:55:29.137Z,82.34
2023-02-12T05:57:55.635Z,82.26
2023-02-12T06:00:22.710Z,82.85
2023-02-12T06:02:49.210Z,82.84
2023-02-12T06:05:15.715Z,83.15
2023-02-12T06:07:43.717Z,82.21
2023-02-12T06:10:10.515Z,82.52
2023-02-12T06:12:37.010Z,82.58
2023-02-12T06:15:03.741Z,82.45
2023-02-12T06:17:30.153Z,82.54
2023-02-12T06:19:56.558Z,81.87
2023-02-12T06:22:23.078Z,81.33
2023-02-12T06:24:49.462Z,81.24
2023-02-12T06:27:16.005Z,81.97
2023-02-12T06:29:43.418Z,81.95
2023-02-12T06:32:13.447Z,82.16
2023-02-12T06:34:41.700Z,82.14
2023-02-12T06:37:08.445Z,82.37
2023-02-12T06:39:34.958Z,82.10
2023-02-12T06:42:01.401Z,82.12
2023-02-12T06:44:27.923Z,81.75
2023-02-12T06:46:54.513Z,82.21
2023-02-12T06:49:21.018Z,81.89
2023-02-12T06:51:47.731Z,82.15
2023-02-12T06:54:15.620Z,82.38
2023-02-12T06:56:42.220Z,82.82
2023-02-12T06:59:14.306Z,82.67
2023-02-12T07:01:41.130Z,82.53
2023-02-12T07:04:07.739Z,82.32
2023-02-12T07:06:35.828Z,82.28
2023-02-12T07:09:04.483Z,82.10
2023-02-12T07:11:36.181Z,82.43
2023-02-12T07:14:05.654Z,81.81
2023-02-12T07:16:32.172Z,82.43
2023-02-12T07:18:58.768Z,82.32
2023-02-12T07:21:25.722Z,82.19
2023-02-12T07:23:53.048Z,82.85
2023-02-12T07:26:21.395Z,82.50
2023-02-12T07:28:48.700Z,82.24
2023-02-12T07:31:18.401Z,82.33
2023-02-12T07:33:45.617Z,82.34
2023-02-12T07:36:15.140Z,82.16
2023-02-12T07:38:42.420Z,82.40
2023-02-12T07:41:17.643Z,82.46
2023-02-12T07:43:45.782Z,82.47
2023-02-12T07:46:16.671Z,82.31
2023-02-12T07:48:44.100Z,81.77
2023-02-12T07:51:13.021Z,82.16
2023-02-12T07:53:39.578Z,81.94
2023-02-12T07:56:11.640Z,81.60
2023-02-12T07:58:39.400Z,81.27
2023-02-12T08:01:19.055Z,81.16
2023-02-12T08:03:47.248Z,80.73
2023-02-12T08:06:17.175Z,81.32
2023-02-12T08:08:43.968Z,95.70
2023-02-12T08:11:12.126Z,92.31
2023-02-12T08:13:39.249Z,79.21
2023-02-12T08:16:09.957Z,78.10
2023-02-12T08:18:36.548Z,77.90
2023-02-12T08:21:11.062Z,78.32
2023-02-12T08:23:38.335Z,78.64
2023-02-12T08:26:13.321Z,78.75
2023-02-12T08:28:42.847Z,79.00
2023-02-12T08:31:13.367Z,79.46
2023-02-12T08:33:39.832Z,79.79
2023-02-12T08:36:07.671Z,79.94
2023-02-12T08:38:34.130Z,80.23
2023-02-12T08:41:05.844Z,81.01
2023-02-12T08:43:32.995Z,81.87
2023-02-12T08:46:26.948Z,81.89
2023-02-12T08:48:58.578Z,81.42
2023-02-12T08:51:28.752Z,82.09
2023-02-12T08:53:57.808Z,82.78
2023-02-12T08:56:25.351Z,82.95
2023-02-12T08:58:52.669Z,83.19
2023-02-12T09:01:24.325Z,82.58
2023-02-12T09:03:51.864Z,83.61
2023-02-12T09:06:21.659Z,83.71
2023-02-12T09:08:48.585Z,85.53
2023-02-12T09:11:18.254Z,87.11
2023-02-12T09:13:46.698Z,87.59
2023-02-12T09:16:14.255Z,88.13
2023-02-12T09:18:41.062Z,87.45
2023-02-12T09:21:10.154Z,89.46
2023-02-12T09:23:36.901Z,91.62
2023-02-12T09:26:08.329Z,91.63
2023-02-12T09:28:35.702Z,92.26
2023-02-12T09:31:10.038Z,91.49
2023-02-12T09:33:36.581Z,91.59
2023-02-12T09:36:04.707Z,91.63
2023-02-12T09:38:32.341Z,92.28
2023-02-12T09:41:17.174Z,92.71
2023-02-12T09:44:03.877Z,92.84
2023-02-12T09:46:48.012Z,92.16
2023-02-12T09:49:59.760Z,92.16
2023-02-12T09:52:29.063Z,90.96
2023-02-12T09:54:56.684Z,90.49
2023-02-12T09:57:36.332Z,89.84
2023-02-12T10:00:08.677Z,89.39
2023-02-12T10:02:40.347Z,89.26
2023-02-12T10:05:29.194Z,88.57
2023-02-12T10:08:14.962Z,88.92
2023-02-12T10:10:52.425Z,87.83
2023-02-12T10:13:35.039Z,86.89
2023-02-12T10:16:14.847Z,86.38
2023-02-12T10:18:53.630Z,85.45
2023-02-12T10:21:33.023Z,84.76
2023-02-12T10:24:19.420Z,84.46
2023-02-12T10:26:52.767Z,84.04
2023-02-12T10:29:23.254Z,84.64
2023-02-12T10:32:00.606Z,83.72
2023-02-12T10:34:33.785Z,83.19
2023-02-12T10:37:09.989Z,82.95
2023-02-12T10:39:41.309Z,83.08
2023-02-12T10:42:24.945Z,82.82
2023-02-12T10:44:51.427Z,82.42
2023-02-12T10:47:21.784Z,82.47
2023-02-12T10:49:57.764Z,81.44
2023-02-12T10:52:24.249Z,81.34
2023-02-12T10:54:50.627Z,81.17
2023-02-12T10:57:39.280Z,80.95
2023-02-12T11:00:30.726Z,81.30
2023-02-12T11:03:02.390Z,81.24
2023-02-12T11:05:31.045Z,81.56
2023-02-12T11:07:57.627Z,81.84
2023-02-12T11:10:41.785Z,82.12
2023-02-12T11:13:27.786Z,81.08
2023-02-12T11:15:55.518Z,81.61
2023-02-12T11:18:26.136Z,81.32
2023-02-12T11:20:57.668Z,80.27
2023-02-12T11:23:26.177Z,81.18
2023-02-12T11:26:05.386Z,81.08
2023-02-12T11:28:34.869Z,80.72
2023-02-12T11:31:26.254Z,80.91
2023-02-12T11:34:16.013Z,80.19
2023-02-12T11:36:52.167Z,80.68
2023-02-12T11:39:27.170Z,79.81
2023-02-12T11:41:56.973Z,80.96
2023-02-12T11:44:30.728Z,80.54
2023-02-12T11:47:08.740Z,80.48
2023-02-12T11:49:44.155Z,80.30
2023-02-12T11:52:34.017Z,81.02
2023-02-12T11:55:04.721Z,79.90
2023-02-12T11:57:44.800Z,79.82
2023-02-12T12:00:19.868Z,79.71
2023-02-12T12:03:06.786Z,79.23
2023-02-12T12:05:40.313Z,79.08
2023-02-12T12:08:16.874Z,79.14
2023-02-12T12:11:13.105Z,79.98
2023-02-12T12:13:54.714Z,79.77
2023-02-12T12:16:49.401Z,78.76
2023-02-12T12:19:52.319Z,78.74
2023-02-12T12:22:40.084Z,79.42
2023-02-12T12:25:15.479Z,78.67
2023-02-12T12:28:05.527Z,78.81
2023-02-12T12:31:06.805Z,79.36
2023-02-12T12:34:03.855Z,79.82
2023-02-12T12:36:55.609Z,79.20
2023-02-12T12:39:35.735Z,78.85
2023-02-12T12:42:20.380Z,78.45
2023-02-12T12:45:06.526Z,78.41
2023-02-12T12:47:54.087Z,78.91
2023-02-12T12:50:34.787Z,78.98
2023-02-12T12:53:14.470Z,79.04
2023-02-12T12:55:43.801Z,79.52
2023-02-12T12:58:43.766Z,78.37
2023-02-12T13:01:31.592Z,78.90
2023-02-12T13:04:35.386Z,78.55
2023-02-12T13:07:04.597Z,79.90
2023-02-12T13:10:01.738Z,78.77
2023-02-12T13:12:53.934Z,78.39
2023-02-12T13:15:49.412Z,79.08
2023-02-12T13:18:27.841Z,78.73
2023-02-12T13:20:58.746Z,80.67
2023-02-12T13:23:49.403Z,80.19
2023-02-12T13:26:25.818Z,80.31
2023-02-12T13:29:01.641Z,80.23
2023-02-12T13:31:33.865Z,78.75
2023-02-12T13:34:07.889Z,78.21
2023-02-12T13:36:36.568Z,79.93
2023-02-12T13:39:18.809Z,79.35
2023-02-12T13:41:54.079Z,78.42
2023-02-12T13:44:32.671Z,77.69
2023-02-12T13:47:08.745Z,77.01
2023-02-12T13:49:44.326Z,77.19
2023-02-12T13:52:34.073Z,77.11
2023-02-12T13:55:14.541Z,76.94
2023-02-12T13:57:41.277Z,76.54
2023-02-12T14:00:59.850Z,77.38
2023-02-12T14:03:29.823Z,77.41
2023-02-12T14:06:16.195Z,79.47
2023-02-12T14:08:50.310Z,79.17
2023-02-12T14:11:21.169Z,77.46
2023-02-12T14:14:23.184Z,77.21
2023-02-12T14:16:49.771Z,76.17
2023-02-12T14:19:50.194Z,76.32
2023-02-12T14:22:28.784Z,75.38
2023-02-12T14:24:57.084Z,75.42
2023-02-12T14:27:30.741Z,75.69
2023-02-12T14:30:31.603Z,78.36
2023-02-12T14:33:10.513Z,77.03
2023-02-12T14:35:40.901Z,77.71
2023-02-12T14:38:45.802Z,76.57
2023-02-12T14:41:37.759Z,76.13
2023-02-12T14:44:30.414Z,75.44
2023-02-12T14:46:59.799Z,75.94
2023-02-12T14:49:36.712Z,75.52
2023-02-12T14:52:14.659Z,75.37
2023-02-12T14:54:51.064Z,75.66
2023-02-12T14:57:32.845Z,76.48
2023-02-12T15:00:17.701Z,75.56
2023-02-12T15:02:49.626Z,75.62
2023-02-12T15:05:23.537Z,76.45
2023-02-12T15:07:59.094Z,77.18
2023-02-12T15:10:32.398Z,75.03
2023-02-12T15:13:14.054Z,74.90
2023-02-12T15:15:50.731Z,74.85
2023-02-12T15:18:44.636Z,75.44
2023-02-12T15:21:22.889Z,75.93
2023-02-12T15:24:11.457Z,75.49
2023-02-12T15:26:42.558Z,75.03
2023-02-12T15:29:25.257Z,75.08
2023-02-12T15:31:57.958Z,75.44
2023-02-12T15:34:27.910Z,73.96
2023-02-12T15:36:58.467Z,74.03
2023-02-12T15:39:26.286Z,74.68
2023-02-12T15:41:52.909Z,74.18
2023-02-12T15:44:22.317Z,74.35
2023-02-12T15:47:08.798Z,74.84
2023-02-12T15:49:37.478Z,74.12
2023-02-12T15:52:10.075Z,74.27
2023-02-12T15:54:37.919Z,73.89
2023-02-12T15:57:11.222Z,73.90
2023-02-12T15:59:37.815Z,74.22
2023-02-12T16:02:04.478Z,74.35
2023-02-12T16:04:34.137Z,74.73
2023-02-12T16:07:01.772Z,75.55
2023-02-12T16:09:31.949Z,75.91
2023-02-12T16:12:11.212Z,77.30
2023-02-12T16:14:44.731Z,77.75
2023-02-12T16:17:22.542Z,78.72
2023-02-12T16:20:09.364Z,78.92
2023-02-12T16:22:41.916Z,80.19
2023-02-12T16:25:21.988Z,79.66
2023-02-12T16:28:07.435Z,79.70
2023-02-12T16:30:45.042Z,80.24
2023-02-12T16:33:39.325Z,79.64
2023-02-12T16:36:14.080Z,80.45
2023-02-12T16:38:44.881Z,80.33
2023-02-12T16:41:20.485Z,79.00
2023-02-12T16:43:50.856Z,80.01
2023-02-12T16:46:20.423Z,79.73
2023-02-12T16:48:51.620Z,78.80
2023-02-12T16:51:31.554Z,78.21
2023-02-12T16:54:00.242Z,79.31
2023-02-12T16:56:29.260Z,78.75
2023-02-12T16:59:00.902Z,79.82
2023-02-12T17:01:30.948Z,80.44
2023-02-12T17:03:59.292Z,80.36
2023-02-12T17:06:28.714Z,80.27
2023-02-12T17:08:55.719Z,80.22
2023-02-12T17:11:24.004Z,80.58
2023-02-12T17:13:52.531Z,80.81
2023-02-12T17:16:30.374Z,80.10
2023-02-12T17:18:57.782Z,79.87
2023-02-12T17:21:26.879Z,79.61
2023-02-12T17:23:56.494Z,79.84
2023-02-12T17:26:24.641Z,80.22
2023-02-12T17:28:51.077Z,80.67
2023-02-12T17:31:17.759Z,81.53
2023-02-12T17:33:44.465Z,80.44
2023-02-12T17:36:12.212Z,79.29
2023-02-12T17:38:38.690Z,79.03
2023-02-12T17:41:11.155Z,79.86
2023-02-12T17:43:37.792Z,79.61
2023-02-12T17:46:17.115Z,79.39
2023-02-12T17:48:43.696Z,78.99
2023-02-12T17:51:11.646Z,78.74
2023-02-12T17:53:42.736Z,78.29
2023-02-12T17:56:17.350Z,79.01
2023-02-12T17:58:45.093Z,79.02
2023-02-12T18:01:16.733Z,79.11
2023-02-12T18:03:43.464Z,79.44
2023-02-12T18:06:13.948Z,79.22
2023-02-12T18:08:41.895Z,79.47
2023-02-12T18:11:12.219Z,79.85
2023-02-12T18:13:39.316Z,80.52
2023-02-12T18:16:07.679Z,80.58
2023-02-12T18:18:35.320Z,80.84
2023-02-12T18:21:06.120Z,79.65
2023-02-12T18:23:32.547Z,79.14
2023-02-12T18:25:59.032Z,78.28
2023-02-12T18:28:25.493Z,78.45
2023-02-12T18:30:57.504Z,78.13
2023-02-12T18:33:24.596Z,78.18
2023-02-12T18:36:03.027Z,79.08
2023-02-12T18:38:30.295Z,79.56
2023-02-12T18:40:57.197Z,80.04
2023-02-12T18:43:24.884Z,79.75
2023-02-12T18:45:51.657Z,79.73
2023-02-12T18:48:18.351Z,79.46
2023-02-12T18:50:44.799Z,79.21
2023-02-12T18:53:11.386Z,79.05
2023-02-12T18:55:39.352Z,79.01
2023-02-12T18:58:05.922Z,78.93
2023-02-12T19:00:32.432Z,79.26
2023-02-12T19:02:58.855Z,78.23
2023-02-12T19:05:26.582Z,78.53
2023-02-12T19:07:53.638Z,79.18
2023-02-12T19:10:20.259Z,79.46
2023-02-12T19:12:46.926Z,79.97
2023-02-12T19:15:13.576Z,80.30
2023-02-12T19:17:40.104Z,80.14
2023-02-12T19:20:07.570Z,80.57
2023-02-12T19:22:35.223Z,80.84
2023-02-12T19:25:03.249Z,81.06
2023-02-12T19:27:31.427Z,81.03
2023-02-12T19:30:00.287Z,80.11
2023-02-12T19:32:26.818Z,81.52
2023-02-12T19:34:53.993Z,87.13
2023-02-12T19:37:21.287Z,88.38
2023-02-12T19:39:47.715Z,85.65
2023-02-12T19:42:16.674Z,87.43
2023-02-12T19:44:44.508Z,86.06
2023-02-12T19:47:10.998Z,84.97
2023-02-12T19:49:38.117Z,89.68
2023-02-12T19:52:05.285Z,90.32
2023-02-12T19:54:31.737Z,90.28
2023-02-12T19:56:58.305Z,89.68
2023-02-12T19:59:27.707Z,89.42
2023-02-12T20:01:54.769Z,89.61
2023-02-12T20:04:25.059Z,88.69
2023-02-12T20:06:52.650Z,87.80
2023-02-12T20:09:21.142Z,87.17
2023-02-12T20:11:48.334Z,87.12
2023-02-12T20:14:15.238Z,86.54
2023-02-12T20:16:44.579Z,85.86
2023-02-12T20:19:15.505Z,86.02
2023-02-12T20:21:43.378Z,86.03
2023-02-12T20:24:10.017Z,86.21
2023-02-12T20:26:37.963Z,87.12
2023-02-12T20:29:05.394Z,87.91
2023-02-12T20:31:34.442Z,88.28
2023-02-12T20:34:04.673Z,88.72
2023-02-12T20:36:36.861Z,89.12
2023-02-12T20:39:05.790Z,90.45
2023-02-12T20:41:32.928Z,90.90
2023-02-12T20:44:00.622Z,91.30
2023-02-12T20:46:27.589Z,90.99
2023-02-12T20:48:55.053Z,91.64
2023-02-12T20:51:26.402Z,91.52
2023-02-12T20:53:55.563Z,92.31
2023-02-12T20:56:27.177Z,91.72
2023-02-12T20:58:54.255Z,92.14
2023-02-12T21:01:42.459Z,92.13
2023-02-12T21:04:15.048Z,91.85
2023-02-12T21:06:42.235Z,92.57
2023-02-12T21:09:11.075Z,92.39
2023-02-12T21:11:39.811Z,92.64
2023-02-12T21:14:23.961Z,92.40
2023-02-12T21:16:55.001Z,91.66
2023-02-12T21:19:22.224Z,91.98
2023-02-12T21:21:48.989Z,91.49
2023-02-12T21:24:21.592Z,91.44
2023-02-12T21:26:48.703Z,91.10
2023-02-12T21:29:15.104Z,91.25
2023-02-12T21:31:44.726Z,90.54
2023-02-12T21:34:14.426Z,90.44
2023-02-12T21:36:42.960Z,90.22
2023-02-12T21:39:12.932Z,89.47
2023-02-12T21:41:41.432Z,89.64
2023-02-12T21:44:14.535Z,89.67
2023-02-12T21:46:41.846Z,88.84
2023-02-12T21:49:08.417Z,88.92
2023-02-12T21:51:38.265Z,88.45
2023-02-12T21:54:15.882Z,88.27
2023-02-12T21:56:44.480Z,87.96
2023-02-12T21:59:11.288Z,88.13
2023-02-12T22:01:42.425Z,88.57
2023-02-12T22:04:10.079Z,88.84
2023-02-12T22:06:38.688Z,88.63
2023-02-12T22:09:07.905Z,88.55
2023-02-12T22:11:36.313Z,88.25
2023-02-12T22:14:04.324Z,87.51
2023-02-12T22:16:31.191Z,86.28
2023-02-12T22:19:00.094Z,85.83
2023-02-12T22:21:28.550Z,86.46
2023-02-12T22:23:56.722Z,86.37
2023-02-12T22:26:26.985Z,87.22
2023-02-12T22:28:56.161Z,86.96
2023-02-12T22:31:29.241Z,88.42
2023-02-12T22:33:59.035Z,88.26
2023-02-12T22:36:26.805Z,88.44
2023-02-12T22:38:55.487Z,88.24
2023-02-12T22:41:23.141Z,88.04
2023-02-12T22:43:51.241Z,87.83
2023-02-12T22:46:17.875Z,88.28
2023-02-12T22:48:45.516Z,88.05
2023-02-12T22:51:22.621Z,89.04
2023-02-12T22:53:49.537Z,88.66
2023-02-12T22:56:16.565Z,87.61
2023-02-12T22:58:43.934Z,87.17
2023-02-12T23:01:14.124Z,87.92
2023-02-12T23:03:41.603Z,87.28
2023-02-12T23:06:11.932Z,88.48
2023-02-12T23:08:38.559Z,87.74
2023-02-12T23:11:07.921Z,87.45
2023-02-12T23:13:36.142Z,87.73
2023-02-12T23:16:03.167Z,86.97
2023-02-12T23:18:29.940Z,84.65
2023-02-12T23:20:56.641Z,84.31
2023-02-12T23:23:23.385Z,82.50
2023-02-12T23:25:50.200Z,81.37
2023-02-12T23:28:17.272Z,81.73
2023-02-12T23:30:43.807Z,80.98
2023-02-12T23:33:10.714Z,79.79
2023-02-12T23:35:37.138Z,81.33
2023-02-12T23:38:04.413Z,83.29
2023-02-12T23:40:32.610Z,82.77
2023-02-12T23:42:59.979Z,80.39
2023-02-12T23:45:27.143Z,78.60
2023-02-12T23:47:53.735Z,76.79
2023-02-12T23:50:21.504Z,77.84
2023-02-12T23:52:48.226Z,77.35
2023-02-12T23:55:14.842Z,78.89
2023-02-12T23:57:41.363Z,79.13
